createdAt,value
2023-06-08T10:25:37.965Z,92.30
2023-06-08T10:28:08.689Z,92.30
2023-06-08T10:30:42.683Z,91.90
2023-06-08T10:33:12.619Z,91.70
2023-06-08T10:35:42.737Z,91.80
2023-06-08T10:44:32.744Z,91.80
2023-06-08T10:47:03.092Z,92.20
2023-06-08T10:49:36.173Z,91.70
2023-06-08T10:52:06.998Z,91.80
2023-06-08T10:54:53.963Z,91.60
2023-06-08T10:57:41.386Z,91.80
2023-06-08T11:00:45.766Z,91.90
2023-06-08T11:03:23.378Z,91.80
2023-06-08T11:05:54.966Z,91.30
2023-06-08T11:08:24.363Z,91.10
2023-06-08T11:10:57.581Z,90.80
2023-06-08T11:13:26.669Z,90.60
2023-06-08T11:15:57.899Z,90.40
2023-06-08T11:18:26.902Z,90.10
2023-06-08T11:20:59.882Z,90.20
2023-06-08T11:23:33.404Z,90.40
2023-06-08T11:26:02.929Z,90.30
2023-06-08T11:28:31.636Z,90.40
2023-06-08T11:31:08.473Z,90.10
2023-06-08T11:33:36.928Z,90.00
2023-06-08T11:36:07.604Z,90.10
2023-06-08T11:39:46.007Z,90.50
2023-06-08T11:42:16.252Z,91.10
2023-06-08T11:44:59.446Z,91.50
2023-06-08T11:51:07.082Z,92.30
2023-06-08T11:53:51.714Z,92.80
2023-06-08T12:00:49.372Z,93.50
2023-06-08T12:03:55.326Z,93.80
2023-06-08T12:06:49.050Z,93.40
2023-06-08T12:09:29.619Z,94.20
2023-06-08T12:12:14.250Z,94.20
2023-06-08T12:15:03.295Z,94.60
2023-06-08T12:17:51.408Z,94.40
2023-06-08T12:20:42.546Z,94.30
2023-06-08T12:23:30.356Z,94.70
2023-06-08T12:26:02.298Z,94.50
2023-06-08T12:28:38.533Z,94.20
2023-06-08T12:31:17.363Z,93.90
2023-06-08T12:33:55.313Z,93.80
2023-06-08T12:37:00.984Z,93.60
2023-06-08T12:39:43.380Z,93.80
2023-06-08T12:42:16.229Z,93.40
2023-06-08T12:44:49.758Z,93.10
2023-06-08T12:47:21.098Z,93.50
2023-06-08T12:49:52.646Z,93.50
2023-06-08T12:52:23.543Z,93.80
2023-06-08T12:54:52.533Z,94.30
2023-06-08T12:57:27.708Z,94.60
2023-06-08T13:00:10.446Z,94.60
2023-06-08T13:02:48.485Z,95.10
2023-06-08T13:05:17.833Z,94.80
2023-06-08T13:07:48.415Z,95.00
2023-06-08T13:10:17.631Z,95.00
2023-06-08T13:12:50.051Z,95.10
2023-06-08T13:15:19.772Z,95.10
2023-06-08T13:17:49.787Z,94.80
2023-06-08T13:20:19.020Z,95.10
2023-06-08T13:22:49.492Z,95.40
2023-06-08T13:25:19.245Z,95.50
2023-06-08T13:27:53.005Z,95.60
2023-06-08T13:30:23.137Z,96.00
2023-06-08T13:33:05.522Z,95.50
2023-06-08T13:35:35.135Z,95.70
2023-06-08T13:38:05.731Z,96.00
2023-06-08T13:40:36.203Z,96.20
2023-06-08T13:43:05.309Z,96.00
2023-06-08T13:45:35.763Z,96.20
2023-06-08T13:48:05.371Z,95.80
2023-06-08T13:50:34.700Z,96.10
2023-06-08T13:53:04.854Z,95.90
2023-06-08T13:55:34.026Z,96.20
2023-06-08T13:58:03.350Z,96.20
2023-06-08T14:00:31.964Z,96.20
2023-06-08T14:03:01.539Z,96.10
2023-06-08T14:05:55.892Z,96.10
2023-06-08T14:08:26.592Z,95.80
2023-06-08T14:10:55.752Z,95.60
2023-06-08T14:13:24.454Z,95.80
2023-06-08T14:15:53.163Z,95.90
2023-06-08T14:18:21.938Z,95.80
2023-06-08T14:20:50.843Z,95.50
2023-06-08T14:23:20.797Z,95.90
2023-06-08T14:25:51.150Z,95.90
2023-06-08T14:28:20.001Z,96.00
2023-06-08T14:30:54.532Z,96.10
2023-06-08T14:33:23.872Z,95.90
2023-06-08T14:36:08.595Z,95.90
2023-06-08T14:38:37.612Z,95.90
2023-06-08T14:41:07.711Z,95.70
2023-06-08T14:43:36.661Z,96.30
2023-06-08T14:46:05.588Z,95.80
2023-06-08T14:48:37.389Z,95.50
2023-06-08T14:51:15.139Z,95.60
2023-06-08T14:53:53.552Z,95.30
2023-06-08T14:56:39.505Z,95.00
2023-06-08T15:00:06.100Z,94.20
2023-06-08T15:02:41.402Z,94.30
2023-06-08T15:05:38.100Z,94.10
2023-06-08T15:08:07.070Z,93.90
2023-06-08T15:10:40.990Z,92.80
2023-06-08T15:13:13.695Z,91.20
2023-06-08T15:15:42.622Z,91.20
2023-06-08T15:18:12.021Z,91.80
2023-06-08T15:20:43.242Z,91.10
2023-06-08T15:23:13.870Z,91.30
2023-06-08T15:25:42.752Z,91.50
2023-06-08T15:28:16.677Z,91.10
2023-06-08T15:30:45.603Z,90.10
2023-06-08T15:33:14.402Z,90.30
2023-06-08T15:35:43.147Z,89.80
2023-06-08T15:38:13.342Z,88.70
2023-06-08T15:40:42.151Z,87.90
2023-06-08T15:43:10.706Z,88.20
2023-06-08T15:45:40.669Z,87.20
2023-06-08T15:48:11.672Z,84.30
2023-06-08T15:50:40.402Z,84.30
2023-06-08T15:53:08.884Z,83.90
2023-06-08T15:55:37.849Z,82.30
2023-06-08T15:58:08.734Z,81.20
2023-06-08T16:00:41.253Z,81.30
2023-06-08T16:03:09.943Z,81.20
2023-06-08T16:05:38.519Z,82.00
2023-06-08T16:08:07.428Z,81.70
2023-06-08T16:10:35.931Z,81.50
2023-06-08T16:16:23.466Z,81.00
2023-06-08T16:19:09.873Z,81.90
2023-06-08T16:24:32.739Z,82.00
2023-06-08T16:27:02.113Z,82.20
2023-06-08T16:29:30.618Z,82.10
2023-06-08T16:32:00.675Z,82.20
2023-06-08T16:34:29.388Z,79.90
2023-06-08T16:36:57.928Z,80.20
2023-06-08T16:39:26.464Z,81.10
2023-06-08T16:42:23.639Z,81.60
2023-06-08T16:44:52.809Z,82.50
2023-06-08T16:47:22.804Z,81.80
2023-06-08T16:49:51.284Z,80.90
2023-06-08T16:52:19.710Z,81.70
2023-06-08T16:54:48.489Z,80.00
2023-06-08T16:57:17.074Z,79.40
2023-06-08T16:59:45.688Z,78.10
2023-06-08T17:02:14.172Z,78.20
2023-06-08T17:04:44.132Z,79.10
2023-06-08T17:07:13.103Z,78.00
2023-06-08T17:09:41.684Z,78.60
2023-06-08T17:12:12.092Z,78.90
2023-06-08T17:14:40.553Z,81.70
2023-06-08T17:20:32.401Z,81.40
2023-06-08T17:23:04.636Z,80.80
2023-06-08T17:25:33.263Z,80.40
2023-06-08T17:28:04.219Z,81.20
2023-06-08T17:30:32.705Z,80.00
2023-06-08T17:33:49.262Z,80.80
2023-06-08T17:36:31.372Z,82.20
2023-06-08T17:38:59.962Z,80.70
2023-06-08T17:41:28.897Z,81.70
2023-06-08T17:43:57.449Z,81.10
2023-06-08T17:46:26.057Z,81.30
2023-06-08T17:48:54.700Z,81.40
2023-06-08T17:51:39.332Z,81.60
2023-06-08T17:54:18.600Z,82.20
2023-06-08T17:56:47.097Z,81.50
2023-06-08T17:59:16.294Z,82.40
2023-06-08T18:01:45.131Z,83.40
2023-06-08T18:04:14.339Z,82.10
2023-06-08T18:06:44.154Z,81.80
2023-06-08T18:09:14.750Z,83.60
2023-06-08T18:11:43.927Z,82.80
2023-06-08T18:14:15.045Z,82.50
2023-06-08T18:16:45.117Z,82.50
2023-06-08T18:19:13.548Z,84.90
2023-06-08T18:21:43.579Z,84.50
2023-06-08T18:24:12.137Z,84.30
2023-06-08T18:26:41.200Z,84.10
2023-06-08T18:29:10.064Z,83.50
2023-06-08T18:31:38.538Z,84.10
2023-06-08T18:34:07.077Z,83.90
2023-06-08T18:36:35.540Z,83.10
2023-06-08T18:39:05.751Z,83.40
2023-06-08T18:41:34.142Z,83.80
2023-06-08T18:44:02.548Z,82.10
2023-06-08T18:46:30.952Z,82.60
2023-06-08T18:49:01.620Z,83.10
2023-06-08T18:51:30.035Z,82.70
2023-06-08T18:53:58.426Z,83.40
2023-06-08T18:56:28.970Z,83.30
2023-06-08T18:58:57.498Z,83.60
2023-06-08T19:01:25.954Z,83.00
2023-06-08T19:03:54.983Z,84.20
2023-06-08T19:06:23.724Z,84.10
2023-06-08T19:08:52.236Z,84.10
2023-06-08T19:11:21.520Z,83.10
2023-06-08T19:13:51.429Z,84.30
2023-06-08T19:16:20.028Z,83.90
2023-06-08T19:18:50.006Z,84.00
2023-06-08T19:21:20.220Z,83.50
2023-06-08T19:23:48.644Z,84.30
2023-06-08T19:26:17.325Z,84.90
2023-06-08T19:28:45.838Z,85.30
2023-06-08T19:31:15.644Z,85.60
2023-06-08T19:33:44.118Z,85.80
2023-06-08T19:36:12.558Z,86.20
2023-06-08T19:38:41.130Z,85.90
2023-06-08T19:41:09.489Z,86.50
2023-06-08T19:43:37.826Z,86.50
2023-06-08T19:46:07.570Z,86.70
2023-06-08T19:48:38.977Z,86.50
2023-06-08T19:51:08.927Z,86.50
2023-06-08T19:53:37.790Z,85.50
2023-06-08T19:56:06.890Z,86.50
2023-06-08T19:58:35.426Z,87.20
2023-06-08T20:01:04.114Z,86.70
2023-06-08T20:03:32.698Z,87.50
2023-06-08T20:06:02.508Z,87.60
2023-06-08T20:08:31.892Z,87.40
2023-06-08T20:11:01.611Z,86.90
2023-06-08T20:13:32.234Z,85.80
2023-06-08T20:16:00.976Z,86.20
2023-06-08T20:18:29.531Z,86.90
2023-06-08T20:20:57.916Z,87.40
2023-06-08T20:23:27.734Z,87.50
2023-06-08T20:25:57.129Z,88.50
2023-06-08T20:28:26.177Z,86.70
2023-06-08T20:30:55.710Z,88.10
2023-06-08T20:33:24.459Z,86.90
2023-06-08T20:35:52.876Z,88.10
2023-06-08T20:38:21.275Z,89.10
2023-06-08T20:40:51.171Z,87.80
2023-06-08T20:43:19.597Z,87.80
2023-06-08T20:45:49.374Z,88.40
2023-06-08T20:48:17.988Z,87.50
2023-06-08T20:50:46.624Z,89.00
2023-06-08T20:53:15.060Z,88.30
2023-06-08T20:55:44.313Z,89.20
2023-06-08T20:58:15.060Z,89.00
2023-06-08T21:00:44.170Z,89.30
2023-06-08T21:03:15.895Z,88.70
2023-06-08T21:05:46.229Z,89.60
2023-06-08T21:08:15.050Z,89.60
2023-06-08T21:10:43.509Z,90.00
2023-06-08T21:13:13.272Z,89.30
2023-06-08T21:15:41.765Z,89.80
2023-06-08T21:18:10.233Z,90.00
2023-06-08T21:20:38.693Z,89.50
2023-06-08T21:23:07.382Z,88.60
2023-06-08T21:25:35.990Z,90.00
2023-06-08T21:28:04.673Z,89.10
2023-06-08T21:30:34.737Z,90.20
2023-06-08T21:33:03.181Z,90.10
2023-06-08T21:35:31.613Z,90.00
2023-06-08T21:38:00.059Z,90.10
2023-06-08T21:40:28.882Z,90.00
2023-06-08T21:42:57.416Z,89.30
2023-06-08T21:45:25.805Z,89.50
2023-06-08T21:47:58.236Z,90.00
2023-06-08T21:50:27.121Z,90.00
2023-06-08T21:52:55.566Z,88.80
2023-06-08T21:55:23.988Z,90.00
2023-06-08T21:57:52.471Z,90.00
2023-06-08T22:00:20.996Z,90.10
2023-06-08T22:02:49.395Z,89.30
2023-06-08T22:05:19.248Z,89.10
2023-06-08T22:07:48.342Z,89.10
2023-06-08T22:10:16.835Z,89.20
2023-06-08T22:12:46.247Z,89.60
2023-06-08T22:15:14.737Z,89.60
2023-06-08T22:17:45.878Z,90.00
2023-06-08T22:20:15.607Z,88.80
2023-06-08T22:22:45.752Z,89.10
2023-06-08T22:25:14.363Z,90.00
2023-06-08T22:27:42.893Z,89.80
2023-06-08T22:30:12.994Z,89.80
2023-06-08T22:32:42.480Z,90.30
2023-06-08T22:35:11.781Z,89.40
2023-06-08T22:37:40.214Z,90.20
2023-06-08T22:40:11.347Z,89.80
2023-06-08T22:42:39.890Z,90.50
2023-06-08T22:45:09.814Z,90.30
2023-06-08T22:47:42.992Z,90.60
2023-06-08T22:50:12.432Z,90.20
2023-06-08T22:52:41.372Z,90.40
2023-06-08T22:55:11.682Z,90.40
2023-06-08T22:57:40.118Z,90.50
2023-06-08T23:00:11.638Z,90.40
2023-06-08T23:02:41.105Z,90.40
2023-06-08T23:05:10.847Z,90.60
2023-06-08T23:07:39.957Z,90.60
2023-06-08T23:10:13.758Z,90.70
2023-06-08T23:12:43.317Z,90.90
2023-06-08T23:15:14.485Z,90.80
2023-06-08T23:17:43.734Z,90.60
2023-06-08T23:20:13.703Z,90.50
2023-06-08T23:22:42.209Z,90.80
2023-06-08T23:25:14.474Z,90.50
2023-06-08T23:27:43.006Z,90.60
2023-06-08T23:30:13.170Z,90.60
2023-06-08T23:32:41.631Z,90.90
2023-06-08T23:35:10.984Z,90.70
2023-06-08T23:37:39.475Z,90.80
2023-06-08T23:40:09.778Z,90.70
2023-06-08T23:42:40.191Z,91.10
2023-06-08T23:45:10.925Z,90.60
2023-06-08T23:47:39.597Z,91.30
2023-06-08T23:50:09.272Z,90.80
2023-06-08T23:52:38.370Z,91.10
2023-06-08T23:55:08.446Z,91.00
2023-06-08T23:57:37.175Z,91.30
